Time;durP1;ratioP1;P1;durP2;ratioP2;P2;SDS_P1;SDS_P2;PMS_P1;PMS_P2;Temp;Humidity;BMP_temperature;BMP_pressure;BME280_temperature;BME280_humidity;BME280_pressure;Samples;Min_cycle;Max_cycle;Signal;HPM_P1;HPM_P2
2021/07/15 00:02:24;;;;;;;0.95;0.08;;;;;;;;;;4982915;28;20392;-82
2021/07/15 00:04:50;;;;;;;4.05;0.13;;;;;;;;;;4981157;28;20438;-81
2021/07/15 00:07:16;;;;;;;1.30;0.00;;;;;;;;;;4982426;28;20035;-81
2021/07/15 00:09:43;;;;;;;2.05;0.10;;;;;;;;;;4978953;28;20053;-80
2021/07/15 00:12:11;;;;;;;1.83;0.35;;;;;;;;;;4976326;28;20011;-80
2021/07/15 00:14:37;;;;;;;0.17;0.08;;;;;;;;;;4968790;28;20023;-80
2021/07/15 00:17:04;;;;;;;1.08;0.10;;;;;;;;;;4982473;28;20042;-80
2021/07/15 00:19:30;;;;;;;1.20;0.10;;;;;;;;;;4982726;28;20054;-82
2021/07/15 00:21:57;;;;;;;0.10;0.10;;;;;;;;;;4983265;28;20033;-82
2021/07/15 00:24:24;;;;;;;0.40;0.20;;;;;;;;;;4981431;28;20053;-81
2021/07/15 00:26:50;;;;;;;5.47;0.22;;;;;;;;;;4982167;28;20031;-80
2021/07/15 00:29:17;;;;;;;4.30;0.47;;;;;;;;;;4983749;28;20022;-81
2021/07/15 00:31:43;;;;;;;2.05;0.10;;;;;;;;;;4983351;28;20049;-81
2021/07/15 00:34:09;;;;;;;0.43;0.15;;;;;;;;;;4965486;28;20028;-82
2021/07/15 00:36:35;;;;;;;5.18;0.30;;;;;;;;;;4964794;28;20086;-82
2021/07/15 00:39:01;;;;;;;0.25;0.10;;;;;;;;;;4965462;29;20023;-83
2021/07/15 00:41:27;;;;;;;2.45;0.25;;;;;;;;;;4964350;29;20042;-82
2021/07/15 00:43:53;;;;;;;0.05;0.00;;;;;;;;;;4979637;28;20121;-81
2021/07/15 00:46:19;;;;;;;1.58;0.10;;;;;;;;;;4982343;28;20038;-81
2021/07/15 00:48:45;;;;;;;2.38;0.13;;;;;;;;;;4984843;28;20058;-81
2021/07/15 00:51:11;;;;;;;0.10;0.10;;;;;;;;;;4983984;28;20027;-81
2021/07/15 00:53:38;;;;;;;1.50;0.10;;;;;;;;;;4985501;28;20504;-82
2021/07/15 00:56:05;;;;;;;0.65;0.10;;;;;;;;;;4984274;28;20026;-81
2021/07/15 00:58:31;;;;;;;1.17;0.28;;;;;;;;;;4965705;29;20094;-82
2021/07/15 01:00:57;;;;;;;0.30;0.10;;;;;;;;;;4965350;29;20035;-82
2021/07/15 01:03:24;;;;;;;0.32;0.10;;;;;;;;;;4965743;28;20031;-83
2021/07/15 01:05:52;;;;;;;2.20;0.10;;;;;;;;;;4966623;28;20015;-82
2021/07/15 01:08:18;;;;;;;2.00;0.10;;;;;;;;;;4964898;29;20062;-82
2021/07/15 01:10:46;;;;;;;2.05;0.22;;;;;;;;;;4978687;28;20591;-81
2021/07/15 01:13:24;;;;;;;1.70;0.10;;;;;;;;;;4983830;28;20431;-82
2021/07/15 01:15:53;;;;;;;1.85;0.10;;;;;;;;;;4986527;28;20030;-82
2021/07/15 01:18:27;;;;;;;0.32;0.10;;;;;;;;;;4985070;28;20035;-81
2021/07/15 01:21:11;;;;;;;0.28;0.08;;;;;;;;;;4985979;28;20042;-82
2021/07/15 01:23:41;;;;;;;0.47;0.10;;;;;;;;;;4985094;28;20035;-82
2021/07/15 01:26:13;;;;;;;3.28;0.98;;;;;;;;;;4987798;28;20027;-81
2021/07/15 01:28:54;;;;;;;5.97;0.20;;;;;;;;;;4986918;28;20031;-82
2021/07/15 01:31:22;;;;;;;2.33;0.30;;;;;;;;;;4984943;28;20090;-81
2021/07/15 01:33:49;;;;;;;3.65;0.10;;;;;;;;;;4986714;28;20035;-81
2021/07/15 01:36:19;;;;;;;2.03;0.13;;;;;;;;;;4979645;28;20043;-80
2021/07/15 01:38:49;;;;;;;0.38;0.10;;;;;;;;;;4969352;28;20012;-82
2021/07/15 01:41:23;;;;;;;7.22;0.47;;;;;;;;;;4965723;29;20094;-82
2021/07/15 01:43:55;;;;;;;3.22;0.30;;;;;;;;;;4967499;28;20019;-81
2021/07/15 01:46:22;;;;;;;0.32;0.10;;;;;;;;;;4984509;28;20031;-82
2021/07/15 01:48:48;;;;;;;3.85;0.20;;;;;;;;;;4978089;28;20027;-82
2021/07/15 01:51:15;;;;;;;3.15;0.17;;;;;;;;;;4966201;29;20023;-81
2021/07/15 01:53:41;;;;;;;0.20;0.10;;;;;;;;;;4970849;28;20019;-81
2021/07/15 01:56:09;;;;;;;12.90;0.65;;;;;;;;;;4986052;28;20042;-82
2021/07/15 01:58:37;;;;;;;3.47;0.30;;;;;;;;;;4984392;28;20094;-82
2021/07/15 02:01:05;;;;;;;0.52;0.10;;;;;;;;;;4983908;28;20590;-81
2021/07/15 02:03:31;;;;;;;0.88;0.15;;;;;;;;;;4979795;28;20123;-82
2021/07/15 02:05:57;;;;;;;0.28;0.10;;;;;;;;;;4964892;28;20078;-82
2021/07/15 02:08:24;;;;;;;6.03;0.38;;;;;;;;;;4964836;29;20069;-82
2021/07/15 02:10:51;;;;;;;6.63;0.45;;;;;;;;;;4964147;28;20054;-82
2021/07/15 02:13:17;;;;;;;2.15;0.30;;;;;;;;;;4978295;28;20502;-81
2021/07/15 02:15:44;;;;;;;1.20;0.60;;;;;;;;;;4984788;28;20487;-82
2021/07/15 02:18:21;;;;;;;0.52;0.10;;;;;;;;;;4988644;28;20035;-82
2021/07/15 02:20:49;;;;;;;0.55;0.20;;;;;;;;;;4986035;28;20506;-81
2021/07/15 02:23:15;;;;;;;0.77;0.20;;;;;;;;;;4979911;28;20031;-81
2021/07/15 02:25:42;;;;;;;0.40;0.10;;;;;;;;;;4979913;28;20031;-81
2021/07/15 02:28:10;;;;;;;2.60;0.20;;;;;;;;;;4965929;28;20039;-81
2021/07/15 02:30:36;;;;;;;2.22;0.32;;;;;;;;;;4978042;28;20507;-81
2021/07/15 02:33:04;;;;;;;3.03;0.30;;;;;;;;;;4995683;28;20062;-81
2021/07/15 02:35:34;;;;;;;0.45;0.20;;;;;;;;;;4985901;28;20026;-81
2021/07/15 02:38:01;;;;;;;0.43;0.20;;;;;;;;;;4984244;28;20027;-81
2021/07/15 02:40:27;;;;;;;4.38;0.20;;;;;;;;;;4984746;28;20062;-81
2021/07/15 02:42:53;;;;;;;0.65;0.17;;;;;;;;;;4985149;28;20030;-81
2021/07/15 02:45:20;;;;;;;0.15;0.10;;;;;;;;;;4992677;28;20062;-81
2021/07/15 02:47:47;;;;;;;2.92;0.20;;;;;;;;;;5005684;28;20050;-81
2021/07/15 02:50:14;;;;;;;0.47;0.13;;;;;;;;;;4966475;28;20058;-81
2021/07/15 02:52:40;;;;;;;3.65;0.10;;;;;;;;;;4966134;29;20391;-81
2021/07/15 02:55:07;;;;;;;3.13;0.10;;;;;;;;;;4981842;28;20030;-81
2021/07/15 02:58:00;;;;;;;0.68;0.10;;;;;;;;;;4983855;28;20034;-81
2021/07/15 03:00:27;;;;;;;0.20;0.10;;;;;;;;;;4984576;28;20533;-81
2021/07/15 03:02:59;;;;;;;1.05;0.13;;;;;;;;;;4984078;28;20227;-81
2021/07/15 03:05:27;;;;;;;0.10;0.10;;;;;;;;;;4982654;28;20137;-81
2021/07/15 03:07:56;;;;;;;1.55;0.10;;;;;;;;;;4981936;28;20035;-81
2021/07/15 03:10:23;;;;;;;1.55;0.30;;;;;;;;;;4962296;29;20027;-81
2021/07/15 03:12:50;;;;;;;1.27;0.20;;;;;;;;;;4969600;29;20027;-80
2021/07/15 03:15:16;;;;;;;2.08;0.20;;;;;;;;;;4982609;28;20114;-81
2021/07/15 03:17:48;;;;;;;0.57;0.20;;;;;;;;;;4981357;28;20035;-80
2021/07/15 03:20:41;;;;;;;0.60;0.10;;;;;;;;;;4974203;28;20076;-81
2021/07/15 03:23:09;;;;;;;3.58;0.17;;;;;;;;;;4973485;28;20070;-81
2021/07/15 03:25:36;;;;;;;2.70;0.20;;;;;;;;;;4975268;28;20050;-81
2021/07/15 03:28:03;;;;;;;1.70;0.20;;;;;;;;;;4973664;28;20051;-81
2021/07/15 03:30:29;;;;;;;0.52;0.20;;;;;;;;;;4954842;29;20051;-81
2021/07/15 03:32:56;;;;;;;0.20;0.10;;;;;;;;;;4954660;28;20023;-81
2021/07/15 03:35:22;;;;;;;4.57;0.20;;;;;;;;;;4973692;28;20113;-80
2021/07/15 03:37:49;;;;;;;2.55;0.63;;;;;;;;;;4957550;28;20031;-80
2021/07/15 03:40:16;;;;;;;0.63;0.30;;;;;;;;;;4972042;28;20067;-81
2021/07/15 03:42:43;;;;;;;4.53;0.50;;;;;;;;;;4973659;28;20054;-81
2021/07/15 03:45:10;;;;;;;1.92;0.20;;;;;;;;;;4980949;28;20541;-81
2021/07/15 03:47:36;;;;;;;3.92;0.10;;;;;;;;;;4998475;28;20034;-81
2021/07/15 03:50:03;;;;;;;4.63;0.63;;;;;;;;;;4980613;28;20054;-81
2021/07/15 03:52:29;;;;;;;0.70;0.25;;;;;;;;;;4986613;28;20024;-81
2021/07/15 03:54:56;;;;;;;2.00;0.20;;;;;;;;;;4969979;29;20445;-80
2021/07/15 03:57:25;;;;;;;4.28;0.60;;;;;;;;;;4966270;28;20027;-80
2021/07/15 03:59:51;;;;;;;0.40;0.30;;;;;;;;;;4977358;28;20081;-81
2021/07/15 04:02:19;;;;;;;1.35;0.57;;;;;;;;;;4974538;28;20445;-80
2021/07/15 04:04:47;;;;;;;2.38;0.28;;;;;;;;;;4973572;28;20419;-80
2021/07/15 04:07:14;;;;;;;0.20;0.20;;;;;;;;;;4973256;28;20146;-80
2021/07/15 04:09:41;;;;;;;0.85;0.17;;;;;;;;;;4959582;28;20027;-80
2021/07/15 04:12:08;;;;;;;2.03;0.47;;;;;;;;;;4955013;29;20110;-80
2021/07/15 04:14:40;;;;;;;0.70;0.10;;;;;;;;;;4968814;28;20057;-81
2021/07/15 04:17:06;;;;;;;1.45;0.17;;;;;;;;;;4974254;28;20089;-81
2021/07/15 04:19:34;;;;;;;0.10;0.10;;;;;;;;;;4973790;28;20035;-80
2021/07/15 04:22:01;;;;;;;3.35;0.30;;;;;;;;;;4974471;28;20054;-80
2021/07/15 04:24:27;;;;;;;0.40;0.10;;;;;;;;;;4974072;28;20472;-80
2021/07/15 04:26:54;;;;;;;5.63;0.40;;;;;;;;;;4973167;28;20023;-80
2021/07/15 04:29:21;;;;;;;5.15;0.20;;;;;;;;;;4975346;28;20050;-81
2021/07/15 04:31:47;;;;;;;0.57;0.30;;;;;;;;;;4977082;28;20034;-80
2021/07/15 04:34:14;;;;;;;3.38;0.20;;;;;;;;;;4976311;28;20031;-80
2021/07/15 04:36:41;;;;;;;0.73;0.20;;;;;;;;;;4963702;28;20054;-80
2021/07/15 04:39:07;;;;;;;1.83;0.20;;;;;;;;;;4965767;28;20027;-80
2021/07/15 04:41:33;;;;;;;0.17;0.17;;;;;;;;;;4958608;29;20038;-80
2021/07/15 04:44:00;;;;;;;2.38;0.40;;;;;;;;;;4960784;28;20055;-80
2021/07/15 04:46:27;;;;;;;4.63;0.80;;;;;;;;;;4977645;28;20025;-80
2021/07/15 04:48:53;;;;;;;10.23;2.28;;;;;;;;;;4973015;28;20054;-80
2021/07/15 04:51:20;;;;;;;6.88;1.08;;;;;;;;;;4960991;29;20492;-80
2021/07/15 04:53:47;;;;;;;2.63;0.98;;;;;;;;;;4969236;28;20027;-80
2021/07/15 04:56:14;;;;;;;1.40;0.50;;;;;;;;;;4980220;28;20019;-81
2021/07/15 04:58:41;;;;;;;1.38;0.47;;;;;;;;;;4977960;28;20041;-80
2021/07/15 05:01:07;;;;;;;1.75;0.50;;;;;;;;;;4975837;28;20373;-80
2021/07/15 05:03:34;;;;;;;2.63;0.63;;;;;;;;;;4977140;28;20073;-81
2021/07/15 05:06:01;;;;;;;1.63;0.50;;;;;;;;;;4970281;28;20560;-81
2021/07/15 05:08:27;;;;;;;2.00;0.60;;;;;;;;;;4962150;28;20035;-81
2021/07/15 05:10:54;;;;;;;0.80;0.20;;;;;;;;;;4976718;28;20054;-81
2021/07/15 05:13:20;;;;;;;1.35;0.30;;;;;;;;;;4977130;28;20389;-81
2021/07/15 05:15:46;;;;;;;1.10;0.10;;;;;;;;;;4976057;28;20070;-81
2021/07/15 05:18:13;;;;;;;1.45;0.10;;;;;;;;;;4975090;28;20031;-81
2021/07/15 05:20:39;;;;;;;0.60;0.10;;;;;;;;;;4975342;28;20058;-80
2021/07/15 05:23:05;;;;;;;0.63;0.20;;;;;;;;;;4975750;28;20034;-81
2021/07/15 05:25:31;;;;;;;0.88;0.17;;;;;;;;;;4976783;28;20419;-80
2021/07/15 05:27:57;;;;;;;0.20;0.20;;;;;;;;;;4976568;28;20069;-80
2021/07/15 05:30:23;;;;;;;0.82;0.10;;;;;;;;;;4955718;29;20027;-81
2021/07/15 05:32:49;;;;;;;0.75;0.10;;;;;;;;;;4956676;29;20023;-81
2021/07/15 05:35:15;;;;;;;1.27;0.03;;;;;;;;;;4978529;28;20452;-80
2021/07/15 05:37:42;;;;;;;0.32;0.10;;;;;;;;;;4962465;28;20123;-80
2021/07/15 05:40:09;;;;;;;0.90;0.10;;;;;;;;;;4956448;28;20023;-81
2021/07/15 05:42:35;;;;;;;3.50;0.10;;;;;;;;;;4955870;29;20485;-80
2021/07/15 05:45:01;;;;;;;4.60;0.30;;;;;;;;;;4977259;28;20089;-80
2021/07/15 05:47:27;;;;;;;1.63;0.10;;;;;;;;;;4994538;28;20097;-81
2021/07/15 05:49:53;;;;;;;1.33;0.40;;;;;;;;;;4978239;28;20046;-82
2021/07/15 05:52:19;;;;;;;0.08;0.00;;;;;;;;;;4975308;28;20023;-82
2021/07/15 05:54:45;;;;;;;1.17;0.20;;;;;;;;;;4977102;28;20035;-83
2021/07/15 05:57:11;;;;;;;2.15;0.20;;;;;;;;;;4978157;28;20042;-82
2021/07/15 05:59:39;;;;;;;0.22;0.10;;;;;;;;;;4963892;28;20032;-81
2021/07/15 06:02:05;;;;;;;1.95;0.20;;;;;;;;;;4960623;29;20027;-84
2021/07/15 06:04:31;;;;;;;1.80;0.20;;;;;;;;;;4958037;29;20396;-85
2021/07/15 06:06:57;;;;;;;0.93;0.20;;;;;;;;;;4958271;28;20035;-79
2021/07/15 06:09:23;;;;;;;2.53;0.20;;;;;;;;;;4967569;28;20027;-78
2021/07/15 06:11:49;;;;;;;1.52;0.10;;;;;;;;;;4977350;28;20082;-77
2021/07/15 06:14:15;;;;;;;1.70;0.20;;;;;;;;;;4967222;28;20030;-79
2021/07/15 06:16:41;;;;;;;0.32;0.20;;;;;;;;;;4974889;28;20038;-80
2021/07/15 06:19:08;;;;;;;2.05;0.08;;;;;;;;;;4966628;28;20037;-81
2021/07/15 06:21:34;;;;;;;3.55;0.22;;;;;;;;;;4957910;29;20068;-80
2021/07/15 06:24:00;;;;;;;0.43;0.10;;;;;;;;;;4965280;28;20089;-79
2021/07/15 06:26:26;;;;;;;0.80;0.10;;;;;;;;;;4975972;28;20034;-79
2021/07/15 06:28:52;;;;;;;0.35;0.20;;;;;;;;;;4968111;28;20043;-80
2021/07/15 06:31:18;;;;;;;1.42;0.17;;;;;;;;;;4956572;28;20039;-79
2021/07/15 06:33:44;;;;;;;0.90;0.38;;;;;;;;;;4956947;28;20024;-80
2021/07/15 06:36:10;;;;;;;1.77;0.22;;;;;;;;;;4975135;28;20038;-80
2021/07/15 06:38:37;;;;;;;0.80;0.13;;;;;;;;;;4972597;28;20023;-80
2021/07/15 06:41:04;;;;;;;0.50;0.30;;;;;;;;;;4975229;28;20038;-80
2021/07/15 06:43:30;;;;;;;3.38;0.50;;;;;;;;;;4971340;28;20495;-79
2021/07/15 06:45:56;;;;;;;1.67;0.40;;;;;;;;;;4992086;28;20054;-80
2021/07/15 06:48:22;;;;;;;0.30;0.20;;;;;;;;;;4996199;28;20027;-84
2021/07/15 06:50:49;;;;;;;1.95;0.40;;;;;;;;;;4995470;28;20080;-84
2021/07/15 06:53:15;;;;;;;0.70;0.40;;;;;;;;;;4997704;28;20050;-84
2021/07/15 06:55:41;;;;;;;2.70;0.50;;;;;;;;;;4969502;28;20029;-84
2021/07/15 06:58:07;;;;;;;0.82;0.32;;;;;;;;;;4950437;28;20035;-84
2021/07/15 07:00:33;;;;;;;0.93;0.30;;;;;;;;;;4950205;28;20102;-85
2021/07/15 07:02:59;;;;;;;1.70;0.40;;;;;;;;;;4949347;28;20058;-84
2021/07/15 07:05:25;;;;;;;2.38;0.25;;;;;;;;;;4953156;28;20023;-86
2021/07/15 07:07:52;;;;;;;0.80;0.40;;;;;;;;;;4952499;29;20019;-85
2021/07/15 07:10:18;;;;;;;2.78;0.38;;;;;;;;;;4962508;28;20022;-85
2021/07/15 07:12:45;;;;;;;1.17;0.40;;;;;;;;;;4970310;28;20676;-86
2021/07/15 07:15:12;;;;;;;1.85;0.40;;;;;;;;;;4980707;28;20042;-85
2021/07/15 07:17:39;;;;;;;3.85;0.50;;;;;;;;;;4993567;28;20044;-85
2021/07/15 07:20:06;;;;;;;1.38;0.50;;;;;;;;;;4987977;28;20092;-85
2021/07/15 07:22:32;;;;;;;2.35;0.20;;;;;;;;;;4989112;28;20026;-84
2021/07/15 07:24:58;;;;;;;6.68;0.50;;;;;;;;;;4973657;28;20038;-82
2021/07/15 07:27:24;;;;;;;2.65;0.40;;;;;;;;;;4972815;28;20081;-83
2021/07/15 07:29:50;;;;;;;3.55;0.40;;;;;;;;;;4966737;28;20024;-82
2021/07/15 07:32:16;;;;;;;1.85;0.40;;;;;;;;;;4976664;28;20123;-82
2021/07/15 07:34:42;;;;;;;2.92;0.40;;;;;;;;;;4983212;28;20027;-82
2021/07/15 07:37:08;;;;;;;2.00;0.47;;;;;;;;;;4971943;28;20031;-81
2021/07/15 07:39:34;;;;;;;0.60;0.30;;;;;;;;;;4958260;28;20098;-80
2021/07/15 07:42:00;;;;;;;1.63;0.60;;;;;;;;;;4962038;28;20624;-82
2021/07/15 07:44:26;;;;;;;1.05;0.40;;;;;;;;;;4976045;28;20030;-83
2021/07/15 07:46:52;;;;;;;4.63;0.47;;;;;;;;;;4993653;28;20038;-81
2021/07/15 07:49:18;;;;;;;1.98;0.43;;;;;;;;;;4980381;28;20173;-81
2021/07/15 07:51:44;;;;;;;10.68;1.85;;;;;;;;;;4974619;28;20031;-80
2021/07/15 07:54:10;;;;;;;0.80;0.43;;;;;;;;;;4963246;28;20031;-81
2021/07/15 07:56:36;;;;;;;1.98;0.22;;;;;;;;;;4953759;28;20102;-80
2021/07/15 07:59:03;;;;;;;5.05;0.82;;;;;;;;;;4952134;28;20481;-82
2021/07/15 08:01:29;;;;;;;2.63;0.47;;;;;;;;;;4953073;29;20524;-78
2021/07/15 08:03:56;;;;;;;0.60;0.30;;;;;;;;;;4954436;28;20032;-80
2021/07/15 08:06:22;;;;;;;1.23;0.95;;;;;;;;;;4958069;28;20035;-81
2021/07/15 08:08:49;;;;;;;1.90;0.30;;;;;;;;;;4972925;28;20050;-80
2021/07/15 08:11:16;;;;;;;0.20;0.20;;;;;;;;;;4985420;28;20030;-81
2021/07/15 08:13:42;;;;;;;0.70;0.40;;;;;;;;;;4979219;28;20027;-81
2021/07/15 08:16:08;;;;;;;1.17;0.35;;;;;;;;;;4973038;28;20031;-81
2021/07/15 08:18:34;;;;;;;4.07;0.45;;;;;;;;;;4973576;28;20565;-81
2021/07/15 08:21:00;;;;;;;6.40;0.90;;;;;;;;;;4966919;28;20420;-84
2021/07/15 08:23:26;;;;;;;4.60;0.73;;;;;;;;;;4967306;28;20037;-83
2021/07/15 08:25:52;;;;;;;1.70;0.40;;;;;;;;;;4971099;28;20028;-82
2021/07/15 08:28:18;;;;;;;1.08;0.60;;;;;;;;;;4974008;28;20034;-82
2021/07/15 08:30:44;;;;;;;3.25;0.47;;;;;;;;;;4979554;28;20081;-81
2021/07/15 08:33:10;;;;;;;3.10;0.40;;;;;;;;;;4978062;28;20026;-82
2021/07/15 08:35:37;;;;;;;3.05;0.40;;;;;;;;;;4979248;28;20046;-82
2021/07/15 08:38:03;;;;;;;3.83;0.30;;;;;;;;;;4977307;28;20023;-83
2021/07/15 08:40:29;;;;;;;2.78;0.57;;;;;;;;;;4965752;28;20038;-81
2021/07/15 08:42:55;;;;;;;3.75;0.60;;;;;;;;;;4966908;28;20061;-81
2021/07/15 08:45:21;;;;;;;4.50;0.40;;;;;;;;;;4978190;28;20467;-81
2021/07/15 08:47:49;;;;;;;1.42;0.32;;;;;;;;;;4967096;28;20069;-80
2021/07/15 08:50:16;;;;;;;1.42;0.30;;;;;;;;;;4994880;28;20095;-81
2021/07/15 08:52:42;;;;;;;0.52;0.20;;;16.50;99.90;;;;;;4980599;28;20031;-81
2021/07/15 08:57:41;;;;;;;2.20;0.30;;;20.30;99.90;;;;;;4966095;28;20035;-81
2021/07/15 09:00:15;;;;;;;0.50;0.20;;;20.40;99.90;;;;;;4986601;28;20019;-81
2021/07/15 09:02:42;;;;;;;0.40;0.32;;;20.60;99.90;;;;;;4974562;28;20788;-81
2021/07/15 09:05:09;;;;;;;1.00;0.17;;;20.50;99.90;;;;;;4966217;28;20058;-81
2021/07/15 09:07:35;;;;;;;1.88;0.30;;;20.70;99.90;;;;;;4991268;28;20038;-81
2021/07/15 09:10:03;;;;;;;1.98;0.20;;;20.70;99.90;;;;;;4969488;28;20125;-81
2021/07/15 09:12:28;;;;;;;0.77;0.38;;;20.90;99.90;;;;;;4967841;28;20027;-82
2021/07/15 09:14:55;;;;;;;1.42;0.20;;;21.10;99.90;;;;;;4972311;28;20030;-80
2021/07/15 09:17:32;;;;;;;1.67;0.45;;;21.30;99.90;;;;;;4977185;28;20047;-80
2021/07/15 09:19:59;;;;;;;3.33;0.30;;;21.10;99.90;;;;;;4968121;28;20035;-80
2021/07/15 09:22:25;;;;;;;1.38;0.60;;;21.30;99.90;;;;;;4978397;28;20034;-81
2021/07/15 09:24:52;;;;;;;1.00;0.28;;;21.50;99.90;;;;;;4978969;28;20035;-81
2021/07/15 09:27:24;;;;;;;1.17;0.40;;;21.20;99.90;;;;;;4993293;28;20031;-80
2021/07/15 09:30:12;;;;;;;2.47;0.57;;;21.10;99.90;;;;;;4975683;28;20118;-81
2021/07/15 09:33:13;;;;;;;7.10;2.42;;;20.90;99.90;;;;;;4977806;28;20022;-84
2021/07/15 09:35:40;;;;;;;1.45;1.08;;;20.70;99.90;;;;;;4971559;28;20563;-84
2021/07/15 09:38:08;;;;;;;3.88;1.83;;;20.40;99.90;;;;;;4976880;28;20062;-84
2021/07/15 09:40:37;;;;;;;3.47;1.52;;;20.40;99.90;;;;;;4980729;28;20031;-83
2021/07/15 09:43:21;;;;;;;4.35;0.70;;;20.50;99.90;;;;;;4981422;28;20570;-83
2021/07/15 09:45:55;;;;;;;2.83;0.60;;;21.20;99.90;;;;;;4980420;28;20054;-83
2021/07/15 09:48:26;;;;;;;0.52;0.32;;;20.60;99.90;;;;;;4980471;28;20035;-83
2021/07/15 09:50:58;;;;;;;1.20;0.40;;;20.40;99.90;;;;;;4998167;23;20039;-78
2021/07/15 09:53:27;;;;;;;1.73;0.45;;;20.70;99.90;;;;;;4961498;28;20037;-77
2021/07/15 09:56:04;;;;;;;0.95;0.40;;;20.90;99.90;;;;;;4980069;28;20379;-79
2021/07/15 09:58:35;;;;;;;1.65;0.52;;;21.50;99.90;;;;;;4980738;28;20026;-80
2021/07/15 10:01:21;;;;;;;0.80;0.40;;;22.30;99.90;;;;;;5001709;28;20082;-77
2021/07/15 10:03:54;;;;;;;3.03;0.40;;;22.10;99.90;;;;;;4979188;28;20035;-78
2021/07/15 10:06:21;;;;;;;0.52;0.30;;;22.30;99.90;;;;;;4979025;28;20091;-77
2021/07/15 10:08:53;;;;;;;2.13;0.50;;;23.20;99.90;;;;;;4994699;28;20049;-78
2021/07/15 10:11:29;;;;;;;2.08;0.50;;;24.10;99.90;;;;;;4998823;28;20022;-77
2021/07/15 10:14:03;;;;;;;0.75;0.30;;;24.90;99.90;;;;;;4995656;28;20019;-77
2021/07/15 10:16:32;;;;;;;1.70;0.22;;;26.20;99.90;;;;;;4960728;29;20186;-78
2021/07/15 10:18:58;;;;;;;2.08;0.30;;;27.10;99.90;;;;;;4942499;29;20501;-78
2021/07/15 10:21:26;;;;;;;1.40;0.40;;;28.00;99.90;;;;;;4943108;29;20047;-77
2021/07/15 10:23:52;;;;;;;2.17;0.40;;;26.20;99.90;;;;;;4972295;28;20034;-79
2021/07/15 10:26:18;;;;;;;0.93;0.20;;;25.50;99.90;;;;;;4972077;28;20578;-78
2021/07/15 10:28:46;;;;;;;2.95;0.70;;;25.60;99.90;;;;;;4963117;28;20121;-77
2021/07/15 10:31:12;;;;;;;1.58;0.40;;;25.80;99.90;;;;;;4977334;28;20027;-78
2021/07/15 10:33:40;;;;;;;1.33;0.50;;;26.00;99.90;;;;;;4968925;28;20027;-77
2021/07/15 10:36:06;;;;;;;0.32;0.32;;;25.60;99.90;;;;;;4959033;28;20038;-78
2021/07/15 10:38:37;;;;;;;2.28;0.40;;;25.60;99.90;;;;;;4957974;28;20089;-78
2021/07/15 10:41:04;;;;;;;0.40;0.40;;;25.70;99.90;;;;;;4973718;28;20099;-79
2021/07/15 10:43:31;;;;;;;0.55;0.47;;;25.30;99.90;;;;;;4965957;28;20019;-76
2021/07/15 10:45:58;;;;;;;0.30;0.30;;;24.60;99.90;;;;;;4969438;28;20015;-78
2021/07/15 10:48:24;;;;;;;2.45;0.65;;;24.00;99.90;;;;;;4955283;29;20138;-78
2021/07/15 10:50:50;;;;;;;2.15;0.32;;;25.20;99.90;;;;;;4936337;29;20082;-77
2021/07/15 10:53:16;;;;;;;0.75;0.45;;;26.20;99.90;;;;;;4958068;28;20039;-78
2021/07/15 10:55:43;;;;;;;1.83;0.43;;;26.80;99.90;;;;;;4972283;28;20082;-78
2021/07/15 10:58:10;;;;;;;1.75;0.40;;;26.10;99.90;;;;;;4973793;28;20031;-78
2021/07/15 11:00:37;;;;;;;0.35;0.30;;;26.20;99.90;;;;;;4967374;28;20504;-77
2021/07/15 11:03:12;;;;;;;4.20;0.40;;;26.40;99.90;;;;;;4966975;28;20031;-77
2021/07/15 11:05:54;;;;;;;0.40;0.32;;;26.50;99.90;;;;;;4951338;29;20078;-76
2021/07/15 11:08:43;;;;;;;0.80;0.55;;;26.70;99.90;;;;;;4934887;29;20536;-77
2021/07/15 11:11:08;;;;;;;1.15;0.35;;;27.40;99.90;;;;;;4952143;28;20023;-77
2021/07/15 11:13:34;;;;;;;0.55;0.40;;;28.30;99.90;;;;;;4961212;28;20045;-77
2021/07/15 11:16:03;;;;;;;2.85;0.40;;;28.40;99.40;;;;;;4974869;28;20041;-78
2021/07/15 11:19:01;;;;;;;3.33;0.40;;;27.50;99.90;;;;;;4947739;28;20103;-78
2021/07/15 11:21:27;;;;;;;2.92;0.60;;;26.80;99.90;;;;;;4959221;29;20066;-78
2021/07/15 11:24:04;;;;;;;2.22;0.30;;;25.50;99.90;;;;;;4973886;28;20530;-77
2021/07/15 11:26:41;;;;;;;1.48;0.40;;;25.40;99.90;;;;;;4960964;28;20140;-77
2021/07/15 11:29:12;;;;;;;1.05;0.40;;;26.40;99.90;;;;;;4976857;28;20094;-79
2021/07/15 11:31:51;;;;;;;0.50;0.40;;;26.70;99.90;;;;;;4977598;28;20025;-78
2021/07/15 11:34:36;;;;;;;2.90;0.22;;;26.80;99.90;;;;;;4960793;28;20110;-78
2021/07/15 11:37:26;;;;;;;2.10;0.40;;;27.00;99.90;;;;;;4957953;29;20027;-78
2021/07/15 11:39:53;;;;;;;0.30;0.30;;;26.60;99.90;;;;;;4957682;29;20301;-78
2021/07/15 11:42:21;;;;;;;4.28;0.50;;;26.40;99.90;;;;;;4941327;28;20479;-78
2021/07/15 11:45:00;;;;;;;2.17;0.43;;;27.00;99.90;;;;;;4972539;28;20660;-77
2021/07/15 11:47:53;;;;;;;0.60;0.20;;;27.10;99.90;;;;;;4952709;28;20059;-76
2021/07/15 11:50:28;;;;;;;0.93;0.30;;;27.40;99.90;;;;;;4971726;28;20081;-76
2021/07/15 11:53:20;;;;;;;2.85;0.40;;;27.40;99.90;;;;;;4958058;28;20034;-79
2021/07/15 11:55:48;;;;;;;0.77;0.20;;;27.10;99.90;;;;;;4968354;28;20546;-78
2021/07/15 11:58:38;;;;;;;0.32;0.32;;;26.10;99.90;;;;;;4938413;29;20035;-78
2021/07/15 12:01:22;;;;;;;0.93;0.40;;;25.60;99.90;;;;;;4956245;28;20466;-79
2021/07/15 12:04:04;;;;;;;1.67;0.60;;;25.50;99.90;;;;;;4967314;28;20106;-77
2021/07/15 12:06:31;;;;;;;2.40;0.32;;;25.80;99.90;;;;;;4972925;28;20031;-76
2021/07/15 12:09:02;;;;;;;1.10;0.30;;;25.50;99.90;;;;;;4971911;28;20035;-77
2021/07/15 12:11:29;;;;;;;5.95;0.95;;;25.20;99.90;;;;;;4972069;28;20042;-76
2021/07/15 12:13:55;;;;;;;16.95;7.35;;;25.00;99.90;;;;;;4961090;28;20031;-75
2021/07/15 12:16:22;;;;;;;6.55;2.65;;;25.10;99.90;;;;;;4972098;28;20031;-75
2021/07/15 12:18:51;;;;;;;1.42;0.70;;;25.60;99.90;;;;;;4970352;28;20027;-76
2021/07/15 12:21:21;;;;;;;0.55;0.40;;;25.10;99.90;;;;;;4970418;28;20031;-76
2021/07/15 12:23:50;;;;;;;6.80;1.08;;;24.90;99.90;;;;;;4972434;28;20027;-76
2021/07/15 12:26:21;;;;;;;0.68;0.30;;;25.30;99.90;;;;;;4971890;28;20776;-76
2021/07/15 12:28:47;;;;;;;0.30;0.30;;;25.90;99.90;;;;;;4965098;28;20039;-77
2021/07/15 12:31:19;;;;;;;2.20;1.00;;;25.70;99.90;;;;;;4951335;28;20596;-76
2021/07/15 12:33:54;;;;;;;2.28;0.43;;;26.10;99.90;;;;;;4959282;28;20126;-76
2021/07/15 12:36:25;;;;;;;0.28;0.28;;;26.50;99.90;;;;;;4972353;28;20023;-75
2021/07/15 12:38:57;;;;;;;3.17;1.00;;;25.70;99.90;;;;;;4967889;28;20027;-76
2021/07/15 12:41:30;;;;;;;2.60;0.90;;;25.90;99.90;;;;;;4963165;28;20107;-76
2021/07/15 12:44:02;;;;;;;5.18;1.45;;;26.40;99.90;;;;;;4963892;28;20071;-75
2021/07/15 12:46:37;;;;;;;0.37;0.33;;;26.30;99.90;;;;;;4961101;28;20026;-76
2021/07/15 12:49:07;;;;;;;0.68;0.35;;;26.00;99.90;;;;;;4963301;28;20513;-76
2021/07/15 12:51:51;;;;;;;8.05;1.30;;;26.20;99.90;;;;;;4949337;28;20119;-75
2021/07/15 12:56:56;;;;;;;3.38;0.98;;;26.90;99.90;;;;;;4961764;28;20425;-76
2021/07/15 12:59:26;;;;;;;0.80;0.30;;;27.60;99.90;;;;;;4963787;28;20559;-76
2021/07/15 13:01:52;;;;;;;0.43;0.40;;;28.10;97.30;;;;;;4965414;28;20026;-76
2021/07/15 13:04:20;;;;;;;1.45;0.60;;;28.20;97.50;;;;;;4959184;28;20080;-76
2021/07/15 13:06:51;;;;;;;0.88;0.30;;;28.70;97.60;;;;;;4959074;28;20538;-76
2021/07/15 13:14:37;;;;;;;0.57;0.43;;;28.20;93.60;;;;;;4962980;28;20043;-75
2021/07/15 13:17:05;;;;;;;0.55;0.38;;;27.10;97.30;;;;;;4966304;28;20030;-76
2021/07/15 13:19:39;;;;;;;1.50;0.52;;;26.70;97.00;;;;;;4966271;28;20027;-75
2021/07/15 13:22:11;;;;;;;1.10;0.40;;;26.10;97.50;;;;;;4964335;28;20015;-76
2021/07/15 13:24:37;;;;;;;1.75;0.60;;;25.60;99.20;;;;;;4963975;28;20023;-77
2021/07/15 13:27:11;;;;;;;1.65;0.55;;;25.20;99.90;;;;;;4966302;28;20019;-76
2021/07/15 13:29:37;;;;;;;1.45;0.50;;;25.00;99.90;;;;;;4962066;28;20031;-76
2021/07/15 13:32:26;;;;;;;1.65;0.90;;;24.70;99.90;;;;;;4948116;28;20034;-76
2021/07/15 13:34:55;;;;;;;1.95;0.90;;;24.70;99.90;;;;;;4966493;28;20090;-76
2021/07/15 13:37:31;;;;;;;1.33;0.60;;;24.70;99.90;;;;;;4960879;28;20464;-76
2021/07/15 13:40:13;;;;;;;2.72;0.65;;;24.90;99.90;;;;;;4964176;28;20027;-76
2021/07/15 13:42:38;;;;;;;1.75;0.40;;;24.90;99.90;;;;;;4962988;28;20099;-76
2021/07/15 13:45:07;;;;;;;0.90;0.52;;;24.90;99.90;;;;;;4964206;28;20113;-76
2021/07/15 13:47:41;;;;;;;6.43;0.90;;;25.10;99.90;;;;;;4947635;28;20495;-76
2021/07/15 13:50:16;;;;;;;1.77;0.70;;;25.30;99.90;;;;;;4964300;28;20067;-76
2021/07/15 13:52:42;;;;;;;0.50;0.45;;;25.70;99.90;;;;;;4965000;28;20034;-76
2021/07/15 13:55:13;;;;;;;4.07;0.80;;;26.10;99.90;;;;;;4960371;28;20028;-75
2021/07/15 13:57:42;;;;;;;1.48;0.52;;;26.10;99.90;;;;;;4966136;28;20074;-75
2021/07/15 14:00:28;;;;;;;0.65;0.50;;;27.20;99.90;;;;;;4959442;28;20074;-76
2021/07/15 14:02:57;;;;;;;2.47;0.70;;;29.80;99.10;;;;;;4960803;28;20054;-77
2021/07/15 14:05:26;;;;;;;1.27;0.52;;;30.90;92.30;;;;;;4954344;28;20681;-76
2021/07/15 14:07:53;;;;;;;0.60;0.60;;;31.60;91.10;;;;;;4955347;28;20490;-75
2021/07/15 14:10:18;;;;;;;3.25;1.67;;;31.20;88.80;;;;;;4932341;28;20086;-75
2021/07/15 14:12:46;;;;;;;13.32;1.48;;;30.50;89.20;;;;;;4933860;29;20400;-75
2021/07/15 14:15:21;;;;;;;2.15;1.50;;;29.90;91.60;;;;;;4944835;28;20507;-75
2021/07/15 14:18:13;;;;;;;2.03;1.15;;;30.30;88.70;;;;;;4969554;28;20463;-76